Time;durP1;ratioP1;P1;durP2;ratioP2;P2;SDS_P1;SDS_P2;PMS_P1;PMS_P2;Temp;Humidity;BMP_temperature;BMP_pressure;BME280_temperature;BME280_humidity;BME280_pressure;Samples;Min_cycle;Max_cycle;Signal;HPM_P1;HPM_P2
2022/08/14 00:00:19;;;;;;;28.45;19.15;;;;;;;19.14;100.00;100097.41;5015960;28;20030;-85
2022/08/14 00:02:44;;;;;;;23.95;18.35;;;;;;;19.17;100.00;100102.06;5001802;28;20087;-85
2022/08/14 00:05:12;;;;;;;23.38;18.67;;;;;;;19.12;100.00;100089.25;5020153;28;20037;-85
2022/08/14 00:07:38;;;;;;;26.83;18.73;;;;;;;19.22;100.00;100101.19;5002026;28;20030;-84
2022/08/14 00:10:06;;;;;;;26.83;19.15;;;;;;;19.22;100.00;100091.72;5016535;28;20030;-85
2022/08/14 00:12:34;;;;;;;24.80;18.77;;;;;;;19.30;100.00;100090.50;5017300;28;20029;-85
2022/08/14 00:15:01;;;;;;;24.90;19.25;;;;;;;19.33;100.00;100080.66;5015075;28;20029;-85
2022/08/14 00:17:26;;;;;;;25.60;19.27;;;;;;;19.28;100.00;100077.88;5015954;28;20120;-85
2022/08/14 00:19:52;;;;;;;28.08;19.73;;;;;;;19.43;100.00;100067.28;5015300;28;20455;-83
2022/08/14 00:22:18;;;;;;;26.55;19.20;;;;;;;19.45;100.00;100067.50;4997770;28;20042;-85
2022/08/14 00:24:44;;;;;;;27.30;18.92;;;;;;;19.40;100.00;100074.19;5014781;28;20113;-85
2022/08/14 00:27:09;;;;;;;23.75;18.30;;;;;;;19.40;100.00;100071.31;5014673;28;20030;-84
2022/08/14 00:29:35;;;;;;;22.58;18.70;;;;;;;19.41;100.00;100063.38;5015449;28;20036;-84
2022/08/14 00:32:00;;;;;;;24.77;18.00;;;;;;;19.39;100.00;100057.38;4981758;28;20402;-86
2022/08/14 00:34:25;;;;;;;25.98;18.48;;;;;;;19.43;100.00;100061.47;5015797;28;20040;-85
2022/08/14 00:36:51;;;;;;;23.88;18.55;;;;;;;19.47;100.00;100069.81;5016252;28;20033;-85
2022/08/14 00:39:16;;;;;;;23.38;16.48;;;;;;;19.49;100.00;100072.94;5016368;28;20447;-84
2022/08/14 00:41:42;;;;;;;21.85;17.00;;;;;;;19.49;100.00;100070.81;5016157;28;20061;-85
2022/08/14 00:44:08;;;;;;;21.85;16.83;;;;;;;19.50;100.00;100054.22;5016206;28;20440;-85
2022/08/14 00:46:33;;;;;;;21.63;17.30;;;;;;;19.54;100.00;100064.13;5015503;28;20515;-86
2022/08/14 00:48:59;;;;;;;21.23;17.25;;;;;;;19.49;100.00;100056.34;4997471;28;20077;-85
2022/08/14 00:51:28;;;;;;;22.23;16.63;;;;;;;19.53;100.00;100061.78;5014101;28;20040;-85
2022/08/14 00:53:53;;;;;;;23.05;17.38;;;;;;;19.50;100.00;100060.81;5013855;28;20108;-85
2022/08/14 00:56:20;;;;;;;21.60;17.02;;;;;;;19.57;100.00;100053.50;5014461;28;20109;-87
2022/08/14 00:58:46;;;;;;;25.52;16.98;;;;;;;19.58;100.00;100054.28;5015410;28;20061;-86
2022/08/14 01:01:13;;;;;;;26.60;17.13;;;;;;;19.59;100.00;100052.97;5015999;28;20049;-85
2022/08/14 01:03:40;;;;;;;23.95;16.85;;;;;;;19.60;100.00;100057.41;5014536;28;20442;-85
2022/08/14 01:06:07;;;;;;;22.80;17.52;;;;;;;19.60;100.00;100060.31;4998480;28;20092;-86
2022/08/14 01:08:33;;;;;;;21.15;17.33;;;;;;;19.57;100.00;100056.41;5014576;28;20068;-84
2022/08/14 01:10:58;;;;;;;22.38;18.50;;;;;;;19.60;100.00;100063.22;4997967;28;20058;-85
2022/08/14 01:13:26;;;;;;;22.17;18.55;;;;;;;19.55;100.00;100059.09;5014256;28;20313;-85
2022/08/14 01:15:55;;;;;;;23.73;18.80;;;;;;;19.50;100.00;100052.09;5014887;28;20084;-85
2022/08/14 01:21:16;;;;;;;22.08;17.38;;;;;;;19.53;100.00;100053.88;5014675;28;20147;-84
2022/08/14 01:23:46;;;;;;;26.63;18.08;;;;;;;19.52;100.00;100058.09;5014465;28;20038;-85
2022/08/14 01:26:14;;;;;;;25.05;18.85;;;;;;;19.58;100.00;100060.88;5016037;28;20108;-85
2022/08/14 01:28:41;;;;;;;20.75;17.60;;;;;;;19.54;100.00;100058.31;5015543;28;20034;-86
2022/08/14 01:31:11;;;;;;;23.45;18.42;;;;;;;19.59;100.00;100056.63;5016880;28;20061;-85
2022/08/14 01:33:39;;;;;;;23.42;18.45;;;;;;;19.59;100.00;100056.63;5014798;28;20030;-85
2022/08/14 01:36:06;;;;;;;23.02;17.70;;;;;;;19.62;100.00;100060.53;5015695;28;20032;-86
2022/08/14 01:38:33;;;;;;;21.88;18.13;;;;;;;19.64;100.00;100058.63;5013740;28;20091;-82
2022/08/14 01:41:05;;;;;;;21.85;16.30;;;;;;;19.67;100.00;100059.59;4996781;28;20037;-82
2022/08/14 01:43:32;;;;;;;22.17;18.00;;;;;;;19.66;100.00;100061.72;5014051;28;20038;-82
2022/08/14 01:45:59;;;;;;;24.27;17.45;;;;;;;19.72;100.00;100058.69;4996621;28;20044;-82
2022/08/14 01:48:29;;;;;;;19.58;16.13;;;;;;;19.74;100.00;100061.81;5012936;28;20026;-82
2022/08/14 01:50:55;;;;;;;21.85;17.05;;;;;;;19.62;100.00;100041.00;4996546;28;20056;-81
2022/08/14 01:53:20;;;;;;;24.50;17.13;;;;;;;19.76;100.00;100062.81;5012943;28;20108;-82
2022/08/14 01:55:50;;;;;;;21.15;16.17;;;;;;;19.66;100.00;100037.78;4996232;28;20116;-82
2022/08/14 01:58:15;;;;;;;21.63;16.92;;;;;;;19.78;100.00;100056.44;5012657;28;20041;-82
2022/08/14 02:00:41;;;;;;;20.85;17.05;;;;;;;19.69;100.00;100059.84;5014327;28;20034;-82
2022/08/14 02:03:06;;;;;;;20.60;15.88;;;;;;;19.72;100.00;100052.91;5012638;28;20026;-81
2022/08/14 02:05:33;;;;;;;22.92;17.80;;;;;;;19.63;100.00;100059.19;4996412;28;20498;-81
2022/08/14 02:07:58;;;;;;;22.55;16.35;;;;;;;19.64;100.00;100058.63;5012784;28;20033;-81
2022/08/14 02:10:27;;;;;;;23.33;15.80;;;;;;;19.60;100.00;100064.00;5012475;28;20025;-82
2022/08/14 02:12:54;;;;;;;20.75;16.55;;;;;;;19.53;100.00;100053.09;5012605;28;20061;-81
2022/08/14 02:15:20;;;;;;;20.95;16.67;;;;;;;19.60;100.00;100058.19;4996228;28;20026;-80
2022/08/14 02:17:47;;;;;;;22.63;17.05;;;;;;;19.56;100.00;100048.28;4996229;28;20037;-82
2022/08/14 02:20:13;;;;;;;18.80;15.45;;;;;;;19.61;100.00;100059.75;4996199;28;20061;-83
2022/08/14 02:22:38;;;;;;;21.40;16.08;;;;;;;19.57;100.00;100056.41;4996030;28;20060;-82
2022/08/14 02:25:04;;;;;;;19.05;16.00;;;;;;;19.53;100.00;100065.47;4995908;28;20489;-81
2022/08/14 02:27:30;;;;;;;21.90;15.68;;;;;;;19.47;100.00;100058.22;5012245;28;20459;-82
2022/08/14 02:29:55;;;;;;;20.10;15.18;;;;;;;19.44;100.00;100065.94;5013579;28;20030;-82
2022/08/14 02:32:21;;;;;;;18.33;15.05;;;;;;;19.44;100.00;100060.13;4995992;28;20057;-81
2022/08/14 02:34:47;;;;;;;16.85;14.35;;;;;;;19.36;100.00;100044.75;4995919;28;20034;-81
2022/08/14 02:37:12;;;;;;;19.52;14.77;;;;;;;19.27;100.00;100024.94;4995870;28;20032;-81
2022/08/14 02:39:43;;;;;;;18.80;14.85;;;;;;;19.41;100.00;100052.56;5013404;28;20167;-82
2022/08/14 02:42:14;;;;;;;19.23;14.48;;;;;;;19.37;100.00;100051.34;5012304;28;20029;-82
2022/08/14 02:44:41;;;;;;;20.08;15.98;;;;;;;19.31;100.00;100048.59;5013494;28;20033;-81
2022/08/14 02:47:07;;;;;;;17.48;14.52;;;;;;;19.21;100.00;100046.72;5017265;28;20033;-82
2022/08/14 02:49:33;;;;;;;20.13;15.20;;;;;;;19.11;100.00;100049.25;4999407;28;20037;-81
2022/08/14 02:51:59;;;;;;;21.90;16.08;;;;;;;18.98;100.00;100040.56;5017179;28;20033;-81
2022/08/14 02:54:25;;;;;;;20.10;14.85;;;;;;;18.89;100.00;100046.81;5015992;28;20118;-80
2022/08/14 02:56:53;;;;;;;20.60;15.65;;;;;;;18.77;100.00;100031.78;5016092;28;20399;-81
2022/08/14 02:59:19;;;;;;;20.73;15.43;;;;;;;18.79;100.00;100042.81;5015859;28;20525;-82
2022/08/14 03:01:45;;;;;;;18.25;15.23;;;;;;;18.61;100.00;100033.69;5015812;28;20083;-82
2022/08/14 03:04:13;;;;;;;21.40;14.77;;;;;;;18.65;100.00;100037.03;4999416;28;20029;-81
2022/08/14 03:06:42;;;;;;;19.65;15.80;;;;;;;18.61;100.00;100035.81;5015744;28;20485;-81
2022/08/14 03:09:08;;;;;;;22.52;15.30;;;;;;;18.56;100.00;100040.38;5016859;28;20060;-82
2022/08/14 03:11:33;;;;;;;20.17;14.73;;;;;;;18.45;100.00;100031.91;5015675;28;20030;-82
2022/08/14 03:13:59;;;;;;;20.15;15.38;;;;;;;18.46;100.00;100033.47;5015728;28;20076;-81
2022/08/14 03:16:25;;;;;;;22.13;15.95;;;;;;;18.44;100.00;100030.34;5015556;28;20052;-81
2022/08/14 03:18:54;;;;;;;19.10;14.95;;;;;;;18.36;100.00;100023.66;5015794;28;20037;-80
2022/08/14 03:21:21;;;;;;;18.27;14.75;;;;;;;18.39;100.00;100022.53;5016068;28;20034;-81
2022/08/14 03:23:48;;;;;;;18.83;15.27;;;;;;;18.32;100.00;100019.53;5017183;28;20080;-81
2022/08/14 03:26:19;;;;;;;22.77;15.07;;;;;;;18.26;100.00;100016.72;5016159;28;20026;-81
2022/08/14 03:28:49;;;;;;;23.05;16.95;;;;;;;18.59;100.00;100019.00;5017162;28;20029;-82
2022/08/14 03:31:15;;;;;;;23.00;15.88;;;;;;;18.62;100.00;100011.31;4999073;28;20462;-82
2022/08/14 03:33:41;;;;;;;20.83;15.57;;;;;;;18.64;100.00;100020.22;4998930;28;20033;-82
2022/08/14 03:36:13;;;;;;;21.92;15.98;;;;;;;18.59;100.00;100009.53;5016317;28;20080;-82
2022/08/14 03:38:41;;;;;;;20.60;14.50;;;;;;;18.71;100.00;100024.56;5015467;28;20034;-82
2022/08/14 03:41:16;;;;;;;19.27;14.77;;;;;;;18.72;100.00;100032.69;5015376;28;20497;-82
2022/08/14 03:43:47;;;;;;;20.23;15.63;;;;;;;18.71;100.00;100030.34;4998705;28;20091;-81
2022/08/14 03:46:13;;;;;;;20.73;15.87;;;;;;;18.76;100.00;100027.34;5015024;28;20057;-81
2022/08/14 03:48:42;;;;;;;23.92;16.20;;;;;;;18.75;100.00;100011.31;4998458;28;20026;-82
2022/08/14 03:51:09;;;;;;;19.48;15.23;;;;;;;18.88;100.00;100025.78;4995241;28;20042;-82
2022/08/14 03:53:40;;;;;;;18.83;14.98;;;;;;;18.93;100.00;100027.00;4995318;28;20030;-81
2022/08/14 03:56:08;;;;;;;20.45;16.20;;;;;;;18.86;100.00;100007.41;4978668;28;20057;-82
2022/08/14 03:58:34;;;;;;;19.45;15.65;;;;;;;19.01;100.00;100027.88;4996762;28;20018;-83
2022/08/14 04:01:00;;;;;;;20.10;14.63;;;;;;;19.07;100.00;100029.31;4978726;28;20085;-82
2022/08/14 04:03:26;;;;;;;21.65;15.88;;;;;;;18.98;100.00;100014.50;4978860;28;20545;-81
2022/08/14 04:05:54;;;;;;;19.73;15.25;;;;;;;19.00;100.00;100026.31;4978698;28;20022;-81
2022/08/14 04:08:20;;;;;;;21.52;16.08;;;;;;;18.93;100.00;100021.97;4996327;28;20058;-82
2022/08/14 04:10:46;;;;;;;22.13;14.90;;;;;;;18.93;100.00;100021.19;4994994;28;20057;-81
2022/08/14 04:13:16;;;;;;;19.13;14.35;;;;;;;18.97;100.00;100030.31;4995107;28;20058;-81
2022/08/14 04:15:45;;;;;;;22.33;15.65;;;;;;;18.95;100.00;100022.22;4995397;28;20034;-82
2022/08/14 04:18:11;;;;;;;20.63;15.40;;;;;;;19.01;100.00;100019.97;4996099;28;20065;-81
2022/08/14 04:20:39;;;;;;;23.50;15.88;;;;;;;18.86;100.00;99987.13;4980155;28;20018;-82
2022/08/14 04:23:06;;;;;;;21.75;15.95;;;;;;;19.07;100.00;100011.94;4980705;28;20029;-82
2022/08/14 04:25:34;;;;;;;21.60;14.70;;;;;;;19.19;100.00;100020.41;4979884;28;20030;-81
2022/08/14 04:28:04;;;;;;;18.08;14.60;;;;;;;19.33;100.00;100028.50;5002194;28;20054;-82
2022/08/14 04:30:31;;;;;;;21.08;15.95;;;;;;;19.35;100.00;100020.03;4996232;28;20056;-82
2022/08/14 04:32:57;;;;;;;20.00;15.10;;;;;;;19.39;100.00;100011.00;4979187;28;20060;-81
2022/08/14 04:35:23;;;;;;;20.13;14.90;;;;;;;19.62;100.00;100034.44;4994717;28;20026;-81
2022/08/14 04:43:35;;;;;;;19.27;15.10;;;;;;;19.81;98.13;100041.59;4995109;28;20038;-82
2022/08/14 04:46:21;;;;;;;21.15;16.25;;;;;;;19.76;97.49;100041.72;5001560;28;20019;-81
2022/08/14 04:48:47;;;;;;;19.75;15.30;;;;;;;19.86;97.30;100046.47;5003304;28;20115;-82
2022/08/14 04:51:17;;;;;;;17.98;14.25;;;;;;;19.92;97.45;100055.06;5017864;28;20057;-82
2022/08/14 04:53:45;;;;;;;22.98;15.77;;;;;;;19.95;96.94;100039.47;5026295;28;20037;-82
2022/08/14 04:56:12;;;;;;;20.17;16.23;;;;;;;19.89;96.67;100027.19;5010245;28;20036;-82
2022/08/14 04:58:38;;;;;;;20.60;16.15;;;;;;;20.04;96.44;100038.97;5015360;28;20044;-82
2022/08/14 05:01:06;;;;;;;19.13;15.20;;;;;;;20.08;96.16;100036.47;5013559;28;20116;-82
2022/08/14 05:03:34;;;;;;;18.88;15.98;;;;;;;20.20;96.00;100042.78;4997218;28;20029;-82
2022/08/14 05:06:03;;;;;;;19.65;15.40;;;;;;;20.35;95.65;100039.97;4997311;28;20029;-81
2022/08/14 05:08:30;;;;;;;19.90;15.77;;;;;;;20.54;95.30;100049.25;5012935;28;20030;-81
2022/08/14 05:10:57;;;;;;;17.63;14.70;;;;;;;20.69;94.12;100043.56;5014563;28;20059;-82
2022/08/14 05:13:24;;;;;;;19.73;15.25;;;;;;;20.83;93.07;100055.09;5013462;28;20060;-82
2022/08/14 05:15:51;;;;;;;18.88;14.90;;;;;;;20.97;92.62;100045.69;5013323;28;20032;-82
2022/08/14 05:18:18;;;;;;;20.02;14.15;;;;;;;21.12;92.14;100066.09;4996952;28;20045;-81
2022/08/14 05:20:47;;;;;;;18.25;14.98;;;;;;;21.19;91.59;100050.81;4996877;28;20083;-82
2022/08/14 05:23:15;;;;;;;20.15;14.90;;;;;;;21.26;90.37;100049.31;4996816;28;20037;-82
2022/08/14 05:25:41;;;;;;;17.15;14.20;;;;;;;21.36;90.46;100046.63;5013419;28;20400;-82
2022/08/14 05:28:09;;;;;;;16.90;13.55;;;;;;;21.45;90.22;100051.94;5013229;28;20033;-82
2022/08/14 05:30:35;;;;;;;16.65;13.52;;;;;;;21.55;89.99;100061.66;5014409;28;20431;-82
2022/08/14 05:33:00;;;;;;;15.57;13.43;;;;;;;21.64;89.40;100061.09;5013145;28;20467;-82
2022/08/14 05:35:26;;;;;;;15.52;13.73;;;;;;;21.75;88.70;100059.97;4996656;28;20036;-82
2022/08/14 05:37:52;;;;;;;18.15;13.93;;;;;;;21.84;88.69;100071.06;5013349;28;20091;-82
2022/08/14 05:40:18;;;;;;;16.58;13.50;;;;;;;21.84;88.71;100053.59;4996593;28;20113;-83
2022/08/14 05:42:43;;;;;;;17.52;14.25;;;;;;;22.06;88.55;100073.25;5012977;28;20110;-82
2022/08/14 05:45:09;;;;;;;17.65;13.40;;;;;;;22.16;87.53;100067.63;5012953;28;20034;-83
2022/08/14 05:47:38;;;;;;;16.20;13.27;;;;;;;22.23;87.05;100067.66;5015637;28;20432;-82
2022/08/14 05:50:05;;;;;;;16.45;13.10;;;;;;;22.28;86.79;100057.94;5012675;28;20045;-83
2022/08/14 05:52:31;;;;;;;14.68;12.68;;;;;;;22.27;86.05;100062.25;5014120;28;20038;-82
2022/08/14 05:54:57;;;;;;;15.30;12.48;;;;;;;22.15;85.24;100066.84;4996375;28;20091;-83
2022/08/14 05:57:22;;;;;;;14.70;12.80;;;;;;;22.03;85.27;100056.94;5012780;28;20045;-82
2022/08/14 05:59:47;;;;;;;13.98;12.48;;;;;;;22.02;85.25;100069.94;5013746;28;20026;-82
2022/08/14 06:02:13;;;;;;;18.63;12.40;;;;;;;21.87;84.94;100064.09;5013903;28;20029;-83
2022/08/14 06:04:38;;;;;;;15.65;11.57;;;;;;;21.93;85.24;100068.34;4996260;28;20033;-83
2022/08/14 06:07:04;;;;;;;16.30;11.48;;;;;;;22.02;85.46;100073.63;4996276;28;20026;-82
2022/08/14 06:09:30;;;;;;;14.02;12.52;;;;;;;22.25;85.07;100052.53;5012442;28;20475;-83
2022/08/14 06:11:55;;;;;;;13.10;11.23;;;;;;;22.87;83.13;100060.66;5012698;28;20032;-82
2022/08/14 06:14:21;;;;;;;11.77;10.57;;;;;;;23.83;81.95;100067.31;4996212;28;20053;-83
2022/08/14 06:16:46;;;;;;;13.27;10.90;;;;;;;24.49;76.70;100052.84;4996102;28;20374;-83
2022/08/14 06:19:12;;;;;;;13.50;11.95;;;;;;;25.04;73.50;100063.44;4996301;28;20038;-83
2022/08/14 06:21:37;;;;;;;14.07;11.77;;;;;;;25.13;71.70;100036.44;5000202;28;20022;-82
2022/08/14 06:24:03;;;;;;;12.98;11.02;;;;;;;25.18;70.40;100035.41;5016442;28;20033;-82
2022/08/14 06:26:28;;;;;;;13.95;11.77;;;;;;;25.16;70.62;100035.22;5016396;28;20044;-83
2022/08/14 06:28:53;;;;;;;15.48;12.43;;;;;;;25.11;69.88;100047.97;5016380;28;20060;-83
2022/08/14 06:31:19;;;;;;;17.80;11.95;;;;;;;24.90;71.15;100051.31;5016468;28;20041;-83
2022/08/14 06:33:45;;;;;;;15.15;13.52;;;;;;;24.58;69.88;100045.56;5016532;28;20037;-83
2022/08/14 06:36:10;;;;;;;13.27;11.98;;;;;;;24.34;71.08;100040.53;5016353;28;20037;-84
2022/08/14 06:38:36;;;;;;;13.98;11.50;;;;;;;24.19;73.22;100048.00;5016292;28;20379;-84
2022/08/14 06:41:01;;;;;;;13.55;11.73;;;;;;;23.97;73.10;100043.09;4999934;28;20061;-83
2022/08/14 06:43:27;;;;;;;15.18;12.75;;;;;;;23.79;74.46;100042.25;5017364;28;20033;-82
2022/08/14 06:45:52;;;;;;;14.70;13.10;;;;;;;23.60;74.82;100038.28;4999709;28;20474;-83
2022/08/14 06:48:21;;;;;;;16.63;12.95;;;;;;;23.43;75.28;100043.97;5016154;28;20056;-82
2022/08/14 06:50:47;;;;;;;14.23;12.57;;;;;;;23.10;76.17;99999.41;5017135;28;20054;-83
2022/08/14 06:53:16;;;;;;;13.40;12.00;;;;;;;23.16;76.92;100029.88;5015943;28;20072;-84
2022/08/14 06:55:42;;;;;;;16.75;13.27;;;;;;;22.95;77.41;100008.97;5016058;28;20037;-84
2022/08/14 06:58:15;;;;;;;16.05;13.18;;;;;;;22.83;77.85;99996.91;4999370;28;20040;-82
2022/08/14 07:05:44;;;;;;;13.82;12.30;;;;;;;22.93;77.72;100018.28;5017383;28;20483;-83
2022/08/14 07:06:13;;;;;;;14.85;12.23;;;;;;;22.86;78.14;100024.13;5016165;28;20075;-83
2022/08/14 07:08:38;;;;;;;15.23;12.40;;;;;;;22.84;78.52;100023.91;5015710;28;20029;-83
2022/08/14 07:11:04;;;;;;;18.13;13.07;;;;;;;22.93;78.68;100027.03;5015949;28;20060;-83
2022/08/14 07:13:29;;;;;;;15.75;12.93;;;;;;;23.03;79.51;100027.19;5015791;28;20095;-83
2022/08/14 07:15:56;;;;;;;13.98;12.25;;;;;;;23.14;78.46;100031.84;4999348;28;20034;-82
2022/08/14 07:18:24;;;;;;;16.95;13.18;;;;;;;23.27;77.91;100034.50;5015628;28;20062;-82
2022/08/14 07:20:50;;;;;;;15.07;13.35;;;;;;;23.37;77.28;100027.44;5015389;28;20029;-82
2022/08/14 07:23:15;;;;;;;14.90;12.70;;;;;;;23.56;77.20;100038.66;5015297;28;20029;-82
2022/08/14 07:25:42;;;;;;;15.13;13.05;;;;;;;23.58;76.89;100023.50;5015390;28;20470;-83
2022/08/14 07:28:12;;;;;;;14.60;13.10;;;;;;;23.73;76.10;100027.09;5015503;28;20108;-84
2022/08/14 07:30:38;;;;;;;17.17;13.10;;;;;;;23.84;75.76;100033.84;5016360;28;20034;-83
2022/08/14 07:33:04;;;;;;;18.88;13.57;;;;;;;23.88;74.43;100031.28;4999352;28;20032;-83
2022/08/14 07:35:30;;;;;;;15.00;13.50;;;;;;;23.86;74.01;100026.03;5015438;28;20030;-82
2022/08/14 07:37:55;;;;;;;15.60;13.75;;;;;;;23.81;73.12;100027.03;5015404;28;20041;-82
2022/08/14 07:40:21;;;;;;;14.48;13.05;;;;;;;23.68;73.17;100015.66;5015358;28;20046;-82
2022/08/14 07:42:46;;;;;;;15.68;13.75;;;;;;;23.82;74.00;100024.91;5015507;28;20034;-81
2022/08/14 07:45:12;;;;;;;15.45;12.82;;;;;;;23.84;73.64;100016.34;4998714;28;20501;-84
2022/08/14 07:47:42;;;;;;;13.40;11.85;;;;;;;23.91;73.60;100018.41;5016183;28;20048;-81
2022/08/14 07:50:14;;;;;;;15.77;12.93;;;;;;;24.00;73.26;100014.88;5021934;28;20049;-83
2022/08/14 07:52:44;;;;;;;14.30;12.80;;;;;;;24.14;73.24;100016.13;5019047;28;20112;-83
2022/08/14 07:55:11;;;;;;;14.52;12.48;;;;;;;24.25;71.91;100009.81;5016497;28;20061;-84
2022/08/14 07:57:42;;;;;;;14.05;12.48;;;;;;;24.52;71.58;100004.13;5002155;28;20033;-82
2022/08/14 08:00:13;;;;;;;14.50;13.00;;;;;;;24.86;71.63;100000.47;5015318;28;20038;-82
2022/08/14 08:02:41;;;;;;;15.38;12.13;;;;;;;25.19;70.48;100007.69;4998249;28;20167;-83
2022/08/14 08:05:08;;;;;;;15.13;12.60;;;;;;;25.23;69.65;99987.56;5014881;28;20022;-83
2022/08/14 08:07:33;;;;;;;19.10;13.40;;;;;;;25.27;68.54;100002.53;4998176;28;20068;-84
2022/08/14 08:10:29;;;;;;;17.95;12.43;;;;;;;25.17;67.84;99997.97;5014756;28;20054;-82
2022/08/14 08:12:50;;;;;;;14.93;11.63;;;;;;;25.09;68.20;99974.66;5015558;28;20506;-84
2022/08/14 08:15:15;;;;;;;13.60;11.52;;;;;;;25.55;68.52;100000.44;4982619;28;20033;-83
2022/08/14 08:17:41;;;;;;;12.70;10.75;;;;;;;26.11;66.75;99984.56;4998163;28;20482;-84
2022/08/14 08:20:09;;;;;;;12.70;11.00;;;;;;;27.08;66.00;99992.19;5014297;28;20030;-83
2022/08/14 08:22:36;;;;;;;12.98;10.63;;;;;;;28.10;60.96;99991.69;5014469;28;20037;-83
2022/08/14 08:25:02;;;;;;;12.15;9.70;;;;;;;28.74;57.39;99988.84;4998090;28;20415;-85
2022/08/14 08:27:27;;;;;;;12.68;9.68;;;;;;;29.12;54.78;99981.94;4997854;28;20018;-84
2022/08/14 08:30:08;;;;;;;10.23;9.20;;;;;;;29.55;54.23;99989.28;5014332;28;20463;-84
2022/08/14 08:32:41;;;;;;;10.20;9.20;;;;;;;29.67;54.06;99980.50;4998345;28;20045;-83
2022/08/14 08:35:17;;;;;;;10.20;8.30;;;;;;;29.57;53.19;99965.09;5014409;28;20101;-83
2022/08/14 08:37:42;;;;;;;9.75;8.75;;;;;;;29.33;52.62;99969.38;5014555;28;20030;-83
2022/08/14 08:40:08;;;;;;;9.52;8.23;;;;;;;29.36;53.26;99968.09;5015374;28;20042;-83
2022/08/14 08:42:33;;;;;;;9.52;8.63;;;;;;;29.67;51.71;99966.56;4996784;28;20033;-84
2022/08/14 08:44:59;;;;;;;8.48;7.57;;;;;;;30.54;51.63;99969.16;5014419;28;20026;-84
2022/08/14 08:47:25;;;;;;;9.05;8.15;;;;;;;31.46;50.71;99957.69;5013968;28;20030;-84
2022/08/14 08:49:52;;;;;;;9.60;8.10;;;;;;;32.55;47.46;99952.00;4997335;28;20077;-84
2022/08/14 08:52:17;;;;;;;10.27;8.73;;;;;;;33.42;43.92;99950.63;4997540;28;20120;-82
2022/08/14 08:54:53;;;;;;;10.77;8.82;;;;;;;33.87;42.05;99940.94;4997194;28;20068;-85
2022/08/14 08:57:18;;;;;;;10.90;8.73;;;;;;;33.86;42.64;99937.25;5013953;28;20030;-84
2022/08/14 08:59:43;;;;;;;9.82;8.48;;;;;;;33.64;42.16;99927.22;5013508;28;20429;-84
2022/08/14 09:02:09;;;;;;;11.05;9.23;;;;;;;33.22;42.06;99937.00;5013629;28;20025;-84
2022/08/14 09:04:40;;;;;;;10.43;8.95;;;;;;;32.16;43.30;99930.63;4997143;28;20128;-82
2022/08/14 09:07:06;;;;;;;10.68;9.55;;;;;;;31.13;45.29;99922.53;5013510;28;20025;-84
2022/08/14 09:09:32;;;;;;;11.95;10.65;;;;;;;30.48;46.66;99918.63;4997037;28;20029;-84
2022/08/14 09:12:00;;;;;;;10.45;9.38;;;;;;;29.82;48.75;99921.09;5013672;28;20030;-85
2022/08/14 09:14:30;;;;;;;10.65;9.55;;;;;;;29.26;49.70;99918.91;4997015;28;20053;-84
2022/08/14 09:16:58;;;;;;;11.07;9.70;;;;;;;28.62;51.00;99911.56;5013299;28;20080;-85
2022/08/14 09:19:23;;;;;;;10.20;9.13;;;;;;;28.08;52.20;99923.19;4996853;28;20125;-84
2022/08/14 09:21:49;;;;;;;11.18;9.43;;;;;;;27.67;54.29;99914.38;4996844;28;20057;-82
2022/08/14 09:24:14;;;;;;;10.20;9.20;;;;;;;27.45;54.39;99912.75;5013149;28;20528;-84
2022/08/14 09:26:41;;;;;;;10.73;9.73;;;;;;;27.37;56.14;99915.84;5014693;28;20026;-84
2022/08/14 09:29:07;;;;;;;11.50;10.32;;;;;;;27.29;56.52;99900.56;5012948;28;20073;-85
2022/08/14 09:31:34;;;;;;;15.05;12.23;;;;;;;27.34;56.67;99914.19;5014402;28;20164;-84
2022/08/14 09:34:37;;;;;;;14.18;10.88;;;;;;;27.48;57.51;99908.56;5013035;28;20037;-84
2022/08/14 09:37:44;;;;;;;12.75;10.77;;;;;;;27.78;56.01;99899.03;5014417;28;20030;-84
2022/08/14 09:40:34;;;;;;;14.25;10.63;;;;;;;28.01;55.66;99890.44;4993698;28;20042;-83
2022/08/14 09:43:41;;;;;;;12.57;11.25;;;;;;;28.33;55.82;99900.00;5013266;28;20032;-85
2022/08/14 09:46:07;;;;;;;13.15;10.23;;;;;;;28.32;56.13;99893.34;4994478;28;20080;-85
2022/08/14 09:48:32;;;;;;;14.20;11.15;;;;;;;28.17;54.99;99890.81;4996385;28;20038;-84
2022/08/14 09:50:59;;;;;;;13.15;11.73;;;;;;;28.18;55.41;99889.41;5012682;28;20100;-84
2022/08/14 09:53:35;;;;;;;12.90;11.13;;;;;;;28.08;55.06;99888.69;4996506;28;20037;-85
2022/08/14 09:56:01;;;;;;;15.95;11.60;;;;;;;28.00;54.89;99888.13;5012781;28;20026;-84
2022/08/14 09:58:42;;;;;;;12.88;11.10;;;;;;;28.12;55.43;99882.34;5012926;28;20030;-84
2022/08/14 10:01:12;;;;;;;13.32;11.93;;;;;;;28.30;55.90;99875.56;5012900;28;20077;-84
2022/08/14 10:03:48;;;;;;;14.77;12.93;;;;;;;28.60;56.03;99873.97;5013916;28;20106;-85
2022/08/14 10:06:17;;;;;;;15.45;13.40;;;;;;;28.76;55.48;99880.16;5012346;28;20018;-78
2022/08/14 10:08:49;;;;;;;17.58;13.48;;;;;;;28.67;54.93;99875.16;5015129;28;20116;-77
2022/08/14 10:11:21;;;;;;;15.82;12.65;;;;;;;28.53;55.04;99886.72;5014225;28;20053;-79
2022/08/14 10:13:53;;;;;;;14.48;11.95;;;;;;;28.36;55.99;99887.72;5013983;28;20033;-79
2022/08/14 10:16:25;;;;;;;14.18;12.15;;;;;;;28.27;55.80;99890.75;5012618;28;20022;-77
2022/08/14 10:19:03;;;;;;;11.85;10.52;;;;;;;28.26;55.04;99898.00;4998100;28;20114;-80
2022/08/14 10:21:29;;;;;;;12.90;10.27;;;;;;;28.32;55.15;99886.69;4997064;28;20033;-78
2022/08/14 10:23:55;;;;;;;17.48;10.88;;;;;;;28.31;55.15;99885.13;4996144;28;20026;-77
2022/08/14 10:26:20;;;;;;;10.45;9.30;;;;;;;28.12;55.14;99888.22;4995998;28;20022;-76
2022/08/14 10:28:50;;;;;;;11.65;9.85;;;;;;;27.83;55.81;99886.19;5012442;28;20030;-73
2022/08/14 10:31:33;;;;;;;10.75;9.57;;;;;;;27.60;56.49;99894.78;4996643;28;20045;-77
2022/08/14 10:34:17;;;;;;;11.25;9.88;;;;;;;27.30;57.26;99890.38;5012684;28;20113;-75
2022/08/14 10:36:44;;;;;;;12.75;10.10;;;;;;;27.03;58.18;99887.66;5013754;28;20105;-74
2022/08/14 10:39:22;;;;;;;11.15;9.95;;;;;;;26.81;59.59;99883.06;4996417;28;20061;-73
2022/08/14 10:42:04;;;;;;;12.55;10.40;;;;;;;26.67;59.62;99885.63;5013763;28;20022;-74
2022/08/14 10:44:38;;;;;;;10.05;9.15;;;;;;;26.85;59.61;99871.63;5014241;28;20056;-75
2022/08/14 10:47:12;;;;;;;13.10;8.73;;;;;;;27.18;58.75;99871.84;5013104;28;20030;-75
2022/08/14 10:49:48;;;;;;;10.57;8.63;;;;;;;27.44;58.57;99864.25;5011993;28;20054;-75
2022/08/14 10:52:26;;;;;;;10.80;8.73;;;;;;;27.63;57.03;99860.47;5013751;28;20040;-76
2022/08/14 10:55:13;;;;;;;10.88;8.30;;;;;;;27.63;57.04;99863.41;4997145;28;20164;-76
2022/08/14 10:57:55;;;;;;;8.73;7.88;;;;;;;27.79;56.70;99862.41;4997683;28;20088;-76
2022/08/14 11:00:27;;;;;;;8.75;7.88;;;;;;;27.99;55.73;99863.09;5012556;28;20033;-75
2022/08/14 11:03:13;;;;;;;8.32;7.28;;;;;;;28.18;53.80;99853.38;5013651;28;20105;-77
2022/08/14 11:05:44;;;;;;;9.68;7.45;;;;;;;29.09;53.77;99847.81;5013467;28;20064;-77
2022/08/14 11:08:28;;;;;;;11.73;7.57;;;;;;;29.90;50.01;99847.91;5017349;28;20040;-77
2022/08/14 11:10:59;;;;;;;9.05;7.72;;;;;;;30.14;48.22;99857.53;5018226;28;20089;-84
2022/08/14 11:13:29;;;;;;;9.38;7.68;;;;;;;30.16;48.38;99859.84;5017377;28;20080;-77
2022/08/14 11:15:58;;;;;;;8.52;7.55;;;;;;;29.52;48.45;99863.13;5015692;28;20034;-78
2022/08/14 11:18:23;;;;;;;8.63;7.80;;;;;;;28.98;50.27;99863.25;4999422;28;20025;-78
2022/08/14 11:20:53;;;;;;;10.10;8.07;;;;;;;28.49;53.07;99862.16;4999267;28;20026;-75
2022/08/14 11:23:30;;;;;;;10.18;8.50;;;;;;;27.98;55.47;99859.38;5016706;28;20022;-74
2022/08/14 11:25:58;;;;;;;11.15;9.38;;;;;;;27.41;57.21;99847.88;4999377;28;20144;-76